createdAt,value
2018-03-16T00:00:00.225Z,31.00
2018-03-16T00:01:00.933Z,35.00
2018-03-16T00:02:01.640Z,29.00
2018-03-16T00:03:02.379Z,33.00
2018-03-16T00:04:03.064Z,32.00
2018-03-16T00:05:03.769Z,32.00
2018-03-16T00:06:04.476Z,32.00
2018-03-16T00:07:05.182Z,31.00
2018-03-16T00:08:05.889Z,29.00
2018-03-16T00:09:06.596Z,31.00
2018-03-16T00:10:07.303Z,30.00
2018-03-16T00:11:08.012Z,33.00
2018-03-16T00:12:08.718Z,35.00
2018-03-16T00:13:09.424Z,32.00
2018-03-16T00:14:10.132Z,32.00
2018-03-16T00:15:10.836Z,35.00
2018-03-16T00:16:11.554Z,34.00
2018-03-16T00:17:12.261Z,32.00
2018-03-16T00:18:12.979Z,30.00
2018-03-16T00:19:13.685Z,32.00
2018-03-16T00:20:14.408Z,32.00
2018-03-16T00:21:15.120Z,35.00
2018-03-16T00:22:15.828Z,32.00
2018-03-16T00:23:16.535Z,25.00
2018-03-16T00:24:17.240Z,32.00
2018-03-16T00:25:17.946Z,29.00
2018-03-16T00:26:18.662Z,29.00
2018-03-16T00:27:19.376Z,30.00
2018-03-16T00:28:20.085Z,35.00
2018-03-16T00:29:20.790Z,34.00
2018-03-16T00:30:21.496Z,33.00
2018-03-16T00:31:22.203Z,29.00
2018-03-16T00:32:22.910Z,36.00
2018-03-16T00:33:23.618Z,30.00
2018-03-16T00:34:24.322Z,36.00
2018-03-16T00:35:25.034Z,32.00
2018-03-16T00:36:25.775Z,33.00
2018-03-16T00:37:26.451Z,32.00
2018-03-16T00:38:27.157Z,35.00
2018-03-16T00:39:27.880Z,33.00
2018-03-16T00:40:28.581Z,32.00
2018-03-16T00:41:29.301Z,33.00
2018-03-16T00:42:30.009Z,34.00
2018-03-16T00:43:30.728Z,35.00
2018-03-16T00:44:31.442Z,34.00
2018-03-16T00:45:32.159Z,36.00
2018-03-16T00:46:32.878Z,32.00
2018-03-16T00:47:33.583Z,34.00
2018-03-16T00:48:34.292Z,39.00
2018-03-16T00:49:35.007Z,35.00
2018-03-16T00:50:35.715Z,33.00
2018-03-16T00:51:36.423Z,33.00
2018-03-16T00:52:37.143Z,36.00
2018-03-16T00:53:37.858Z,35.00
2018-03-16T00:54:38.563Z,36.00
2018-03-16T00:55:39.268Z,35.00
2018-03-16T00:56:39.986Z,32.00
2018-03-16T00:57:40.691Z,32.00
2018-03-16T00:58:41.397Z,32.00
2018-03-16T00:59:42.113Z,36.00
2018-03-16T01:00:42.826Z,35.00
2018-03-16T01:01:43.537Z,34.00
2018-03-16T01:02:44.242Z,33.00
2018-03-16T01:03:44.948Z,34.00
2018-03-16T01:04:45.654Z,33.00
2018-03-16T01:05:46.372Z,37.00
2018-03-16T01:06:47.078Z,27.00
2018-03-16T01:07:47.784Z,36.00
2018-03-16T01:08:48.489Z,35.00
2018-03-16T01:09:49.195Z,35.00
2018-03-16T01:10:49.902Z,38.00
2018-03-16T01:12:51.242Z,39.00
2018-03-16T01:13:51.969Z,35.00
2018-03-16T01:14:52.698Z,32.00
2018-03-16T01:15:53.415Z,34.00
2018-03-16T01:16:54.132Z,36.00
2018-03-16T01:17:54.852Z,35.00
2018-03-16T01:18:55.570Z,35.00
2018-03-16T01:19:56.287Z,29.00
2018-03-16T01:20:57.009Z,39.00
2018-03-16T01:21:57.759Z,37.00
2018-03-16T01:22:58.522Z,36.00
2018-03-16T01:23:59.239Z,33.00
2018-03-16T01:24:59.980Z,37.00
2018-03-16T01:26:00.734Z,34.00
2018-03-16T01:27:01.497Z,37.00
2018-03-16T01:28:02.213Z,38.00
2018-03-16T01:29:02.931Z,31.00
2018-03-16T01:30:03.649Z,40.00
2018-03-16T01:31:04.366Z,41.00
2018-03-16T01:32:05.108Z,39.00
2018-03-16T01:33:05.852Z,40.00
2018-03-16T01:34:06.567Z,34.00
2018-03-16T01:35:07.321Z,38.00
2018-03-16T01:36:08.076Z,35.00
2018-03-16T01:37:08.807Z,35.00
2018-03-16T01:38:09.535Z,35.00
2018-03-16T01:39:10.250Z,40.00
2018-03-16T01:40:10.970Z,36.00
2018-03-16T01:41:11.707Z,36.00
2018-03-16T01:42:12.435Z,34.00
2018-03-16T01:43:13.163Z,39.00
2018-03-16T01:44:13.915Z,41.00
2018-03-16T01:45:14.656Z,38.00
2018-03-16T01:46:15.384Z,36.00
2018-03-16T01:47:16.138Z,36.00
2018-03-16T01:48:16.897Z,35.00
2018-03-16T01:49:17.639Z,34.00
2018-03-16T01:50:18.390Z,35.00
2018-03-16T01:51:19.109Z,38.00
2018-03-16T01:52:19.830Z,37.00
2018-03-16T01:53:20.557Z,43.00
2018-03-16T01:54:21.275Z,40.00
2018-03-16T01:55:21.990Z,38.00
2018-03-16T01:56:22.714Z,41.00
2018-03-16T01:57:23.437Z,40.00
2018-03-16T01:58:24.191Z,36.00
2018-03-16T01:59:24.948Z,36.00
2018-03-16T02:00:25.672Z,34.00
2018-03-16T02:01:26.388Z,34.00
2018-03-16T02:02:27.107Z,35.00
2018-03-16T02:03:27.858Z,38.00
2018-03-16T02:04:28.577Z,39.00
2018-03-16T02:05:29.297Z,43.00
2018-03-16T02:06:30.013Z,35.00
2018-03-16T02:07:30.731Z,39.00
2018-03-16T02:08:31.451Z,39.00
2018-03-16T02:09:32.178Z,42.00
2018-03-16T02:10:32.928Z,36.00
2018-03-16T02:11:33.647Z,40.00
2018-03-16T02:12:34.366Z,38.00
2018-03-16T02:13:35.093Z,34.00
2018-03-16T02:14:35.810Z,35.00
2018-03-16T02:15:36.553Z,39.00
2018-03-16T02:16:37.280Z,41.00
2018-03-16T02:17:37.999Z,34.00
2018-03-16T02:18:38.718Z,36.00
2018-03-16T02:19:39.464Z,41.00
2018-03-16T02:20:40.189Z,37.00
2018-03-16T02:21:40.954Z,34.00
2018-03-16T02:22:41.718Z,39.00
2018-03-16T02:23:42.448Z,35.00
2018-03-16T02:24:43.200Z,40.00
2018-03-16T02:25:43.928Z,37.00
2018-03-16T02:26:44.656Z,35.00
2018-03-16T02:27:45.384Z,36.00
2018-03-16T02:28:46.147Z,38.00
2018-03-16T02:29:46.879Z,39.00
2018-03-16T02:30:47.631Z,41.00
2018-03-16T02:31:48.348Z,39.00
2018-03-16T02:32:49.066Z,35.00
2018-03-16T02:33:49.795Z,37.00
2018-03-16T02:34:50.525Z,38.00
2018-03-16T02:35:51.245Z,38.00
2018-03-16T02:36:51.975Z,39.00
2018-03-16T02:37:52.688Z,36.00
2018-03-16T02:38:53.407Z,40.00
2018-03-16T02:39:54.136Z,40.00
2018-03-16T02:40:54.862Z,46.00
2018-03-16T02:41:55.581Z,40.00
2018-03-16T02:42:56.299Z,39.00
2018-03-16T02:43:57.015Z,40.00
2018-03-16T02:44:57.731Z,33.00
2018-03-16T02:45:58.461Z,40.00
2018-03-16T02:46:59.177Z,42.00
2018-03-16T02:47:59.908Z,44.00
2018-03-16T02:49:00.637Z,41.00
2018-03-16T02:50:01.356Z,44.00
2018-03-16T02:51:02.087Z,38.00
2018-03-16T02:52:02.851Z,50.00
2018-03-16T02:53:03.596Z,40.00
2018-03-16T02:55:19.557Z,38.00
2018-03-16T02:56:20.309Z,41.00
2018-03-16T02:57:21.028Z,40.00
2018-03-16T02:58:21.780Z,38.00
2018-03-16T02:59:22.543Z,37.00
2018-03-16T03:00:23.272Z,38.00
2018-03-16T03:01:23.989Z,39.00
2018-03-16T03:02:24.707Z,40.00
2018-03-16T03:03:25.424Z,44.00
2018-03-16T03:04:26.151Z,42.00
2018-03-16T03:05:26.858Z,41.00
2018-03-16T03:06:27.574Z,42.00
2018-03-16T03:07:28.293Z,40.00
2018-03-16T03:08:29.046Z,38.00
2018-03-16T03:09:29.772Z,46.00
2018-03-16T03:10:30.500Z,49.00
2018-03-16T03:11:31.216Z,41.00
2018-03-16T03:12:31.952Z,41.00
2018-03-16T03:13:32.665Z,35.00
2018-03-16T03:14:33.379Z,36.00
2018-03-16T03:15:34.099Z,40.00
2018-03-16T03:16:34.846Z,45.00
2018-03-16T03:17:35.574Z,42.00
2018-03-16T03:18:36.304Z,41.00
2018-03-16T03:19:37.021Z,38.00
2018-03-16T03:20:37.748Z,37.00
2018-03-16T03:21:38.476Z,42.00
2018-03-16T03:22:39.204Z,43.00
2018-03-16T03:23:39.932Z,42.00
2018-03-16T03:24:40.686Z,41.00
2018-03-16T03:25:41.437Z,40.00
2018-03-16T03:26:42.156Z,46.00
2018-03-16T03:27:42.894Z,44.00
2018-03-16T03:28:43.622Z,40.00
2018-03-16T03:29:44.376Z,42.00
2018-03-16T03:30:45.107Z,40.00
2018-03-16T03:31:45.853Z,48.00
2018-03-16T03:32:46.581Z,40.00
2018-03-16T03:33:47.310Z,42.00
2018-03-16T03:34:48.065Z,41.00
2018-03-16T03:35:48.780Z,45.00
2018-03-16T03:36:49.510Z,41.00
2018-03-16T03:37:50.238Z,40.00
2018-03-16T03:38:50.970Z,47.00
2018-03-16T03:39:51.720Z,43.00
2018-03-16T03:40:52.439Z,44.00
2018-03-16T03:41:53.158Z,44.00
2018-03-16T03:42:53.875Z,43.00
2018-03-16T03:43:54.604Z,43.00
2018-03-16T03:44:55.332Z,41.00
2018-03-16T03:45:56.052Z,47.00
2018-03-16T03:46:56.770Z,48.00
2018-03-16T03:47:57.500Z,39.00
2018-03-16T03:48:58.216Z,42.00
2018-03-16T03:49:58.934Z,42.00
2018-03-16T03:50:59.685Z,41.00
2018-03-16T03:52:00.400Z,45.00
2018-03-16T03:53:01.129Z,44.00
2018-03-16T03:54:01.852Z,40.00
2018-03-16T03:55:02.588Z,45.00
2018-03-16T03:56:03.319Z,47.00
2018-03-16T03:57:04.048Z,41.00
2018-03-16T03:58:04.798Z,47.00
2018-03-16T03:59:05.517Z,41.00
2018-03-16T04:00:06.256Z,39.00
2018-03-16T04:01:06.987Z,42.00
2018-03-16T04:02:07.714Z,39.00
2018-03-16T04:03:08.433Z,46.00
2018-03-16T04:04:09.163Z,42.00
2018-03-16T04:05:09.880Z,40.00
2018-03-16T04:06:10.598Z,41.00
2018-03-16T04:07:11.316Z,48.00
2018-03-16T04:08:12.032Z,42.00
2018-03-16T04:09:12.761Z,45.00
2018-03-16T04:10:13.488Z,42.00
2018-03-16T04:11:14.203Z,42.00
2018-03-16T04:12:14.959Z,49.00
2018-03-16T04:13:15.674Z,45.00
2018-03-16T04:14:16.391Z,42.00
2018-03-16T04:15:17.121Z,43.00
2018-03-16T04:16:17.849Z,48.00
2018-03-16T04:17:18.566Z,45.00
2018-03-16T04:18:19.284Z,43.00
2018-03-16T04:19:20.014Z,45.00
2018-03-16T04:20:20.730Z,47.00
2018-03-16T04:21:21.449Z,54.00
2018-03-16T04:22:22.164Z,44.00
2018-03-16T04:23:22.882Z,43.00
2018-03-16T04:24:23.601Z,47.00
2018-03-16T04:25:24.343Z,46.00
2018-03-16T04:26:25.057Z,39.00
2018-03-16T04:27:25.777Z,50.00
2018-03-16T04:28:26.531Z,45.00
2018-03-16T04:29:27.248Z,47.00
2018-03-16T04:30:27.967Z,51.00
2018-03-16T04:31:28.696Z,50.00
2018-03-16T04:32:29.414Z,51.00
2018-03-16T04:33:30.132Z,46.00
2018-03-16T04:34:30.881Z,43.00
2018-03-16T04:35:31.609Z,50.00
2018-03-16T04:36:32.361Z,51.00
2018-03-16T04:37:33.079Z,50.00
2018-03-16T04:38:33.809Z,49.00
2018-03-16T04:39:34.573Z,47.00
2018-03-16T04:40:35.293Z,44.00
2018-03-16T04:41:36.032Z,49.00
2018-03-16T04:42:36.752Z,50.00
2018-03-16T04:43:37.493Z,46.00
2018-03-16T04:44:38.212Z,62.00
2018-03-16T04:45:38.941Z,46.00
2018-03-16T04:46:39.704Z,43.00
2018-03-16T04:47:40.433Z,51.00
2018-03-16T04:48:41.165Z,49.00
2018-03-16T04:49:41.892Z,44.00
2018-03-16T04:50:42.620Z,46.00
2018-03-16T04:51:43.340Z,45.00
2018-03-16T04:52:44.082Z,44.00
2018-03-16T04:53:44.813Z,43.00
2018-03-16T04:54:45.573Z,48.00
2018-03-16T04:55:46.305Z,47.00
2018-03-16T04:56:47.023Z,50.00
2018-03-16T04:57:47.741Z,52.00
2018-03-16T04:58:48.470Z,52.00
2018-03-16T04:59:49.199Z,48.00
2018-03-16T05:00:49.919Z,54.00
2018-03-16T05:01:50.638Z,53.00
2018-03-16T05:02:51.357Z,48.00
2018-03-16T05:03:52.111Z,46.00
2018-03-16T05:04:52.831Z,47.00
2018-03-16T05:05:53.559Z,46.00
2018-03-16T05:06:54.287Z,50.00
2018-03-16T05:07:55.005Z,48.00
2018-03-16T05:08:55.723Z,45.00
2018-03-16T05:09:56.440Z,44.00
2018-03-16T05:10:57.170Z,52.00
2018-03-16T05:11:57.899Z,44.00
2018-03-16T05:12:58.632Z,48.00
2018-03-16T05:13:59.350Z,49.00
2018-03-16T05:15:00.067Z,45.00
2018-03-16T05:16:00.798Z,50.00
2018-03-16T05:17:01.525Z,45.00
2018-03-16T05:18:02.271Z,45.00
2018-03-16T05:19:02.973Z,55.00
2018-03-16T05:20:03.704Z,48.00
2018-03-16T05:21:04.469Z,56.00
2018-03-16T05:22:05.188Z,47.00
2018-03-16T05:23:05.918Z,51.00
2018-03-16T05:24:06.636Z,52.00
2018-03-16T05:25:07.352Z,48.00
2018-03-16T05:26:08.071Z,41.00
2018-03-16T05:27:08.800Z,43.00
2018-03-16T05:28:09.567Z,54.00
2018-03-16T05:29:10.292Z,56.00
2018-03-16T05:30:11.044Z,50.00
2018-03-16T05:31:11.774Z,48.00
2018-03-16T05:32:12.493Z,47.00
2018-03-16T05:33:13.221Z,51.00
2018-03-16T05:34:13.987Z,49.00
2018-03-16T05:35:14.716Z,46.00
2018-03-16T05:36:15.436Z,47.00
2018-03-16T05:37:16.167Z,46.00
2018-03-16T05:38:16.920Z,53.00
2018-03-16T05:39:17.672Z,52.00
2018-03-16T05:40:18.390Z,43.00
2018-03-16T05:41:19.109Z,47.00
2018-03-16T05:42:19.842Z,48.00
2018-03-16T05:43:20.568Z,49.00
2018-03-16T05:44:21.297Z,46.00
2018-03-16T05:45:22.027Z,47.00
2018-03-16T05:46:22.793Z,52.00
2018-03-16T05:47:23.513Z,48.00
2018-03-16T05:48:24.233Z,48.00
2018-03-16T05:49:24.952Z,44.00
2018-03-16T05:50:25.695Z,39.00
2018-03-16T05:51:26.438Z,46.00
2018-03-16T05:52:27.154Z,40.00
2018-03-16T05:53:27.873Z,46.00
2018-03-16T05:54:28.588Z,42.00
2018-03-16T05:55:29.318Z,46.00
2018-03-16T05:56:30.087Z,44.00
2018-03-16T05:57:30.838Z,49.00
2018-03-16T05:58:31.570Z,50.00
2018-03-16T05:59:32.290Z,52.00
2018-03-16T06:00:33.008Z,43.00
2018-03-16T06:01:33.761Z,49.00
2018-03-16T06:02:34.526Z,43.00
2018-03-16T06:03:35.259Z,50.00
2018-03-16T06:04:36.012Z,48.00
2018-03-16T06:05:36.732Z,48.00
2018-03-16T06:06:37.448Z,44.00
2018-03-16T06:07:38.192Z,48.00
2018-03-16T06:08:38.924Z,46.00
2018-03-16T06:09:39.644Z,49.00
2018-03-16T06:10:40.367Z,47.00
2018-03-16T06:11:41.102Z,51.00
2018-03-16T06:12:41.815Z,48.00
2018-03-16T06:13:42.536Z,39.00
2018-03-16T06:14:43.254Z,50.00
2018-03-16T06:15:43.976Z,49.00
2018-03-16T06:16:44.706Z,46.00
2018-03-16T06:17:45.426Z,45.00
2018-03-16T06:18:46.146Z,54.00
2018-03-16T06:19:46.877Z,41.00
2018-03-16T06:20:47.610Z,49.00
2018-03-16T06:21:48.330Z,45.00
2018-03-16T06:22:49.054Z,44.00
2018-03-16T06:23:49.787Z,49.00
2018-03-16T06:24:50.540Z,50.00
2018-03-16T06:25:51.274Z,44.00
2018-03-16T06:26:51.997Z,47.00
2018-03-16T06:27:52.741Z,45.00
2018-03-16T06:28:53.474Z,46.00
2018-03-16T06:29:54.243Z,49.00
2018-03-16T06:30:54.999Z,46.00
2018-03-16T06:31:55.720Z,46.00
2018-03-16T06:32:56.442Z,43.00
2018-03-16T06:33:57.204Z,50.00
2018-03-16T06:34:57.896Z,47.00
2018-03-16T06:35:58.629Z,47.00
2018-03-16T06:36:59.360Z,50.00
2018-03-16T06:38:00.129Z,50.00
2018-03-16T06:39:00.860Z,52.00
2018-03-16T06:40:01.584Z,50.00
2018-03-16T06:41:02.317Z,46.00
2018-03-16T06:42:03.036Z,51.00
2018-03-16T06:43:03.758Z,51.00
2018-03-16T06:44:04.491Z,52.00
2018-03-16T06:45:05.379Z,48.00
2018-03-16T06:46:05.976Z,47.00
2018-03-16T06:47:06.698Z,48.00
2018-03-16T06:48:07.419Z,51.00
2018-03-16T06:49:08.141Z,45.00
2018-03-16T06:50:08.861Z,53.00
2018-03-16T06:51:09.593Z,46.00
2018-03-16T06:52:10.313Z,49.00
2018-03-16T06:53:11.039Z,51.00
2018-03-16T06:54:11.757Z,55.00
2018-03-16T06:55:12.488Z,45.00
2018-03-16T06:56:13.211Z,53.00
2018-03-16T06:57:13.957Z,51.00
2018-03-16T06:58:14.680Z,51.00
2018-03-16T06:59:15.402Z,47.00
2018-03-16T07:00:16.143Z,50.00
2018-03-16T07:01:16.875Z,52.00
2018-03-16T07:02:17.596Z,49.00
2018-03-16T07:03:18.364Z,44.00
2018-03-16T07:04:19.048Z,52.00
2018-03-16T07:05:19.768Z,47.00
2018-03-16T07:06:20.516Z,51.00
2018-03-16T07:07:21.232Z,50.00
2018-03-16T07:08:21.988Z,47.00
2018-03-16T07:09:22.754Z,48.00
2018-03-16T07:10:23.477Z,47.00
2018-03-16T07:11:24.196Z,48.00
2018-03-16T07:12:24.928Z,49.00
2018-03-16T07:13:25.696Z,44.00
2018-03-16T07:14:26.455Z,45.00
2018-03-16T07:15:27.187Z,46.00
2018-03-16T07:16:27.909Z,50.00
2018-03-16T07:17:28.644Z,51.00
2018-03-16T07:18:29.364Z,47.00
2018-03-16T07:19:30.088Z,43.00
2018-03-16T07:20:30.833Z,48.00
2018-03-16T07:21:31.569Z,51.00
2018-03-16T07:22:32.292Z,54.00
2018-03-16T07:23:33.014Z,43.00
2018-03-16T07:24:33.735Z,27.00
2018-03-16T07:25:34.466Z,42.00
2018-03-16T07:26:35.185Z,48.00
2018-03-16T07:27:35.921Z,48.00
2018-03-16T07:28:36.641Z,46.00
2018-03-16T07:29:37.402Z,52.00
2018-03-16T07:30:38.097Z,37.00
2018-03-16T07:31:38.833Z,45.00
2018-03-16T07:32:39.591Z,48.00
2018-03-16T07:33:40.339Z,50.00
2018-03-16T07:34:41.058Z,45.00
2018-03-16T07:35:41.816Z,47.00
2018-03-16T07:36:42.549Z,48.00
2018-03-16T07:37:43.308Z,44.00
2018-03-16T07:38:44.043Z,49.00
2018-03-16T07:39:44.762Z,47.00
2018-03-16T07:40:45.497Z,54.00
2018-03-16T07:41:46.254Z,45.00
2018-03-16T07:42:47.012Z,40.00
2018-03-16T07:43:47.697Z,48.00
2018-03-16T07:44:48.419Z,39.00
2018-03-16T07:45:49.152Z,45.00
2018-03-16T07:46:49.886Z,80.00
2018-03-16T07:47:50.621Z,49.00
2018-03-16T07:48:51.346Z,47.00
2018-03-16T07:49:52.079Z,51.00
2018-03-16T07:50:52.813Z,47.00
2018-03-16T07:51:53.535Z,50.00
2018-03-16T07:52:54.258Z,48.00
2018-03-16T07:53:54.994Z,48.00
2018-03-16T07:54:55.716Z,51.00
2018-03-16T07:55:56.437Z,50.00
2018-03-16T07:56:57.159Z,50.00
2018-03-16T07:57:57.881Z,48.00
2018-03-16T07:58:58.627Z,42.00
2018-03-16T07:59:59.381Z,40.00
2018-03-16T08:01:00.114Z,47.00
2018-03-16T08:02:00.837Z,41.00
2018-03-16T08:03:01.569Z,43.00
2018-03-16T08:04:02.302Z,45.00
2018-03-16T08:05:03.036Z,44.00
2018-03-16T08:06:03.794Z,39.00
2018-03-16T08:07:04.527Z,44.00
2018-03-16T08:08:05.250Z,42.00
2018-03-16T08:09:05.970Z,42.00
2018-03-16T08:10:06.694Z,40.00
2018-03-16T08:11:07.413Z,41.00
2018-03-16T08:12:08.155Z,40.00
2018-03-16T08:13:08.890Z,45.00
2018-03-16T08:14:09.656Z,37.00
2018-03-16T08:15:10.453Z,41.00
2018-03-16T08:16:11.105Z,37.00
2018-03-16T08:17:11.858Z,39.00
2018-03-16T08:18:12.626Z,44.00
2018-03-16T08:19:13.346Z,40.00
2018-03-16T08:20:14.122Z,38.00
2018-03-16T08:21:14.822Z,37.00
2018-03-16T08:22:15.569Z,40.00
2018-03-16T08:23:16.289Z,37.00
2018-03-16T08:24:17.010Z,42.00
2018-03-16T08:25:17.734Z,37.00
2018-03-16T08:26:18.476Z,36.00
2018-03-16T08:27:19.198Z,41.00
2018-03-16T08:28:19.932Z,39.00
2018-03-16T08:29:20.690Z,38.00
2018-03-16T08:30:21.423Z,41.00
2018-03-16T08:31:22.158Z,39.00
2018-03-16T08:32:22.879Z,41.00
2018-03-16T08:33:23.599Z,35.00
2018-03-16T08:34:24.332Z,43.00
2018-03-16T08:35:25.054Z,36.00
2018-03-16T08:36:25.801Z,45.00
2018-03-16T08:37:26.537Z,43.00
2018-03-16T08:38:27.269Z,37.00
2018-03-16T08:39:28.005Z,33.00
2018-03-16T08:40:28.756Z,40.00
2018-03-16T08:41:29.479Z,36.00
2018-03-16T08:42:30.199Z,40.00
2018-03-16T08:43:30.932Z,38.00
2018-03-16T08:44:31.653Z,41.00
2018-03-16T08:45:32.374Z,34.00
2018-03-16T08:46:33.096Z,33.00
2018-03-16T08:47:33.816Z,38.00
2018-03-16T08:48:34.539Z,37.00
2018-03-16T08:49:35.271Z,37.00
2018-03-16T08:50:36.029Z,39.00
2018-03-16T08:51:36.751Z,36.00
2018-03-16T08:52:37.496Z,35.00
2018-03-16T08:53:38.220Z,34.00
2018-03-16T08:54:38.963Z,41.00
2018-03-16T08:55:39.720Z,38.00
2018-03-16T08:56:40.454Z,37.00
2018-03-16T08:57:41.176Z,37.00
2018-03-16T08:58:41.896Z,38.00
2018-03-16T08:59:42.630Z,34.00
2018-03-16T09:00:43.351Z,37.00
2018-03-16T09:01:44.082Z,37.00
2018-03-16T09:02:44.815Z,38.00
2018-03-16T09:03:45.547Z,33.00
2018-03-16T09:04:46.281Z,41.00
2018-03-16T09:05:47.002Z,43.00
2018-03-16T09:06:47.726Z,35.00
2018-03-16T09:07:48.450Z,37.00
2018-03-16T09:08:49.171Z,42.00
2018-03-16T09:09:49.909Z,42.00
2018-03-16T09:10:50.637Z,36.00
2018-03-16T09:11:51.361Z,42.00
2018-03-16T09:12:52.094Z,43.00
2018-03-16T09:13:52.862Z,42.00
2018-03-16T09:14:53.584Z,41.00
2018-03-16T09:15:54.309Z,41.00
2018-03-16T09:16:55.042Z,43.00
2018-03-16T09:17:55.775Z,41.00
2018-03-16T09:18:56.500Z,42.00
2018-03-16T09:19:57.257Z,43.00
2018-03-16T09:20:57.990Z,38.00
2018-03-16T09:21:58.710Z,37.00
2018-03-16T09:22:59.455Z,37.00
2018-03-16T09:24:00.188Z,35.00
2018-03-16T09:25:00.910Z,44.00
2018-03-16T09:26:01.632Z,40.00
2018-03-16T09:27:02.366Z,39.00
2018-03-16T09:28:03.088Z,39.00
2018-03-16T09:29:03.811Z,35.00
2018-03-16T09:30:04.533Z,33.00
2018-03-16T09:31:05.256Z,36.00
2018-03-16T09:32:05.978Z,35.00
2018-03-16T09:33:06.709Z,34.00
2018-03-16T09:34:07.432Z,32.00
2018-03-16T09:35:08.153Z,33.00
2018-03-16T09:36:08.872Z,34.00
2018-03-16T09:37:09.614Z,29.00
2018-03-16T09:38:10.336Z,32.00
2018-03-16T09:39:11.059Z,29.00
2018-03-16T09:40:11.806Z,32.00
2018-03-16T09:41:12.553Z,33.00
2018-03-16T09:42:13.275Z,32.00
2018-03-16T09:43:14.023Z,30.00
2018-03-16T09:44:14.755Z,34.00
2018-03-16T09:45:15.488Z,35.00
2018-03-16T09:46:16.267Z,27.00
2018-03-16T09:47:16.976Z,34.00
2018-03-16T09:48:17.708Z,23.00
2018-03-16T09:49:18.431Z,26.00
2018-03-16T09:50:19.165Z,28.00
2018-03-16T09:51:19.885Z,25.00
2018-03-16T09:52:20.608Z,22.00
2018-03-16T09:53:21.341Z,25.00
2018-03-16T09:54:22.059Z,22.00
2018-03-16T09:55:22.780Z,22.00
2018-03-16T09:56:23.501Z,25.00
2018-03-16T09:57:24.223Z,24.00
2018-03-16T09:58:24.956Z,26.00
2018-03-16T09:59:25.711Z,24.00
2018-03-16T10:00:26.433Z,22.00
2018-03-16T10:01:27.154Z,22.00
2018-03-16T10:02:27.898Z,23.00
2018-03-16T10:03:28.630Z,22.00
2018-03-16T10:04:29.399Z,20.00
2018-03-16T10:05:30.133Z,25.00
2018-03-16T10:06:30.865Z,21.00
2018-03-16T10:07:31.599Z,23.00
2018-03-16T10:08:32.328Z,21.00
2018-03-16T10:09:33.058Z,21.00
2018-03-16T10:10:33.791Z,22.00
2018-03-16T10:11:34.516Z,20.00
2018-03-16T10:12:35.242Z,22.00
2018-03-16T10:13:35.967Z,21.00
2018-03-16T10:14:36.727Z,22.00
2018-03-16T10:15:37.449Z,21.00
2018-03-16T10:16:38.174Z,18.00
2018-03-16T10:17:38.908Z,21.00
2018-03-16T10:18:39.644Z,21.00
2018-03-16T10:19:40.378Z,21.00
2018-03-16T10:20:41.146Z,24.00
2018-03-16T10:21:41.874Z,21.00
2018-03-16T10:22:42.592Z,21.00
2018-03-16T10:23:43.313Z,21.00
2018-03-16T10:24:44.034Z,23.00
2018-03-16T10:25:44.781Z,19.00
2018-03-16T10:26:45.506Z,20.00
2018-03-16T10:27:46.265Z,21.00
2018-03-16T10:28:46.988Z,18.00
2018-03-16T10:29:47.709Z,19.00
2018-03-16T10:30:48.457Z,20.00
2018-03-16T10:31:49.179Z,18.00
2018-03-16T10:32:49.902Z,20.00
2018-03-16T10:33:50.624Z,20.00
2018-03-16T10:34:51.348Z,21.00
2018-03-16T10:35:52.081Z,19.00
2018-03-16T10:36:52.840Z,17.00
2018-03-16T10:37:53.574Z,22.00
2018-03-16T10:38:54.310Z,23.00
2018-03-16T10:39:55.066Z,18.00
2018-03-16T10:40:55.788Z,22.00
2018-03-16T10:41:56.535Z,18.00
2018-03-16T10:42:57.260Z,18.00
2018-03-16T10:43:57.981Z,21.00
2018-03-16T10:44:58.701Z,19.00
2018-03-16T10:45:59.425Z,21.00
2018-03-16T10:47:00.184Z,21.00
2018-03-16T10:48:00.908Z,20.00
2018-03-16T10:49:01.635Z,22.00
2018-03-16T10:50:02.363Z,20.00
2018-03-16T10:51:03.085Z,24.00
2018-03-16T10:52:03.809Z,21.00
2018-03-16T10:53:04.531Z,22.00
2018-03-16T10:54:05.256Z,20.00
2018-03-16T10:55:05.977Z,20.00
2018-03-16T10:56:06.712Z,22.00
2018-03-16T10:57:07.444Z,19.00
2018-03-16T10:58:08.200Z,18.00
2018-03-16T10:59:08.927Z,22.00
2018-03-16T11:00:09.648Z,19.00
2018-03-16T11:01:10.396Z,20.00
2018-03-16T11:02:11.118Z,19.00
2018-03-16T11:03:11.843Z,22.00
2018-03-16T11:04:12.565Z,20.00
2018-03-16T11:05:13.287Z,13.00
2018-03-16T11:06:14.011Z,26.00
2018-03-16T11:07:14.743Z,23.00
2018-03-16T11:08:15.498Z,18.00
2018-03-16T11:09:16.259Z,20.00
2018-03-16T11:10:16.958Z,23.00
2018-03-16T11:11:17.691Z,19.00
2018-03-16T11:12:18.425Z,21.00
2018-03-16T11:13:19.199Z,21.00
2018-03-16T11:14:19.964Z,21.00
2018-03-16T11:15:20.734Z,19.00
2018-03-16T11:16:21.466Z,24.00
2018-03-16T11:17:22.225Z,19.00
2018-03-16T11:18:22.959Z,20.00
2018-03-16T11:19:23.729Z,23.00
2018-03-16T11:20:24.487Z,19.00
2018-03-16T11:21:25.207Z,20.00
2018-03-16T11:22:25.943Z,22.00
2018-03-16T11:23:26.686Z,18.00
2018-03-16T11:24:27.418Z,22.00
2018-03-16T11:25:28.141Z,22.00
2018-03-16T11:26:28.875Z,17.00
2018-03-16T11:27:29.633Z,20.00
2018-03-16T11:28:30.358Z,18.00
2018-03-16T11:29:31.106Z,22.00
2018-03-16T11:30:31.827Z,16.00
2018-03-16T11:31:32.555Z,20.00
2018-03-16T11:32:33.275Z,18.00
2018-03-16T11:33:33.999Z,18.00
2018-03-16T11:34:34.723Z,21.00
2018-03-16T11:35:35.455Z,22.00
2018-03-16T11:36:36.213Z,19.00
2018-03-16T11:37:36.941Z,15.00
2018-03-16T11:38:37.664Z,20.00
2018-03-16T11:39:38.401Z,19.00
2018-03-16T11:40:39.123Z,20.00
2018-03-16T11:41:39.866Z,17.00
2018-03-16T11:42:40.624Z,17.00
2018-03-16T11:43:41.384Z,17.00
2018-03-16T11:44:42.119Z,19.00
2018-03-16T11:45:42.880Z,18.00
2018-03-16T11:46:43.603Z,19.00
2018-03-16T11:47:44.342Z,16.00
2018-03-16T11:48:45.092Z,18.00
2018-03-16T11:49:45.829Z,18.00
2018-03-16T11:50:46.552Z,17.00
2018-03-16T11:51:47.278Z,16.00
2018-03-16T11:52:48.000Z,17.00
2018-03-16T11:53:48.722Z,17.00
2018-03-16T11:54:49.458Z,18.00
2018-03-16T11:55:50.182Z,19.00
2018-03-16T11:56:50.907Z,15.00
2018-03-16T11:57:51.642Z,15.00
2018-03-16T11:58:52.367Z,14.00
2018-03-16T11:59:53.101Z,17.00
2018-03-16T12:00:53.824Z,19.00
2018-03-16T12:01:54.583Z,18.00
2018-03-16T12:02:55.307Z,16.00
2018-03-16T12:03:56.032Z,20.00
2018-03-16T12:04:56.766Z,16.00
2018-03-16T12:05:57.501Z,15.00
2018-03-16T12:06:58.221Z,17.00
2018-03-16T12:07:58.954Z,16.00
2018-03-16T12:08:59.669Z,15.00
2018-03-16T12:10:00.402Z,18.00
2018-03-16T12:11:01.137Z,19.00
2018-03-16T12:12:01.862Z,18.00
2018-03-16T12:13:02.619Z,16.00
2018-03-16T12:14:03.344Z,18.00
2018-03-16T12:15:04.079Z,17.00
2018-03-16T12:16:04.801Z,17.00
2018-03-16T12:17:05.534Z,16.00
2018-03-16T12:18:06.294Z,14.00
2018-03-16T12:19:07.017Z,17.00
2018-03-16T12:20:07.741Z,15.00
2018-03-16T12:21:08.490Z,16.00
2018-03-16T12:22:09.224Z,19.00
2018-03-16T12:23:09.947Z,18.00
2018-03-16T12:24:10.667Z,17.00
2018-03-16T12:25:11.392Z,17.00
2018-03-16T12:26:12.118Z,13.00
2018-03-16T12:27:12.842Z,17.00
2018-03-16T12:28:13.576Z,17.00
2018-03-16T12:29:14.361Z,16.00
2018-03-16T12:30:15.098Z,17.00
2018-03-16T12:31:15.824Z,19.00
2018-03-16T12:32:16.557Z,15.00
2018-03-16T12:33:17.315Z,15.00
2018-03-16T12:34:18.042Z,15.00
2018-03-16T12:35:18.761Z,17.00
2018-03-16T12:36:19.496Z,17.00
2018-03-16T12:37:20.215Z,14.00
2018-03-16T12:38:20.941Z,18.00
2018-03-16T12:39:21.667Z,17.00
2018-03-16T12:40:22.417Z,18.00
2018-03-16T12:41:23.139Z,17.00
2018-03-16T12:42:23.862Z,17.00
2018-03-16T12:43:24.586Z,15.00
2018-03-16T12:44:25.310Z,19.00
2018-03-16T12:45:26.057Z,12.00
2018-03-16T12:46:26.784Z,16.00
2018-03-16T12:47:27.528Z,16.00
2018-03-16T12:48:28.253Z,17.00
2018-03-16T12:49:28.975Z,17.00
2018-03-16T12:50:29.700Z,17.00
2018-03-16T12:51:30.459Z,15.00
2018-03-16T12:52:31.168Z,17.00
2018-03-16T12:53:31.920Z,17.00
2018-03-16T12:54:32.622Z,19.00
2018-03-16T12:55:33.346Z,17.00
2018-03-16T12:56:34.078Z,18.00
2018-03-16T12:57:34.800Z,18.00
2018-03-16T12:58:35.522Z,17.00
2018-03-16T12:59:36.258Z,20.00
2018-03-16T13:00:36.982Z,19.00
2018-03-16T13:01:37.716Z,20.00
2018-03-16T13:02:38.438Z,17.00
2018-03-16T13:03:39.161Z,16.00